S/y Cinana — CRVC21 — position and weather

sailwx.info

Track history (hours):
 
Tides and Currents Weather Stations Pressure Air Temp Water Temp Dewpoint Dewpoint Depression Visibility Wind Speed Wind Dir Waves Ship Positions

S/y Cinana

Last reported at 2018-Jul-29 15:50 UTC. Time now 2018-Aug-14 13:48 UTC.
Position N 38°39' W 009°06'.
Warning: this ship's position is 15 days out of date.

Length 13 m.

Type: Sailing vessel. MMSI: 263810470.

Date/timePositionNaut miles runAvg speedWind from/ knotsBaromVisibWave heightAir tempDewpointWater temp
2018-Jul-29 15:50N 38°39' W 009°06'0 0.0
2018-Jul-29 14:32N 38°39' W 009°06'0 0.0
2018-Jul-29 14:14N 38°39' W 009°06'0 0.0
2018-Jul-29 13:29N 38°39' W 009°06'0 0.0
2018-Jul-29 12:38N 38°39' W 009°06'0 0.0
2018-Jul-29 12:20N 38°39' W 009°06'0 0.0
2018-Jul-29 11:56N 38°39' W 009°06'0 0.0
2018-Jul-29 11:20N 38°39' W 009°06'0 0.0
2018-Jul-29 10:08N 38°39' W 009°06'0 0.0
2018-Jul-29 09:47N 38°39' W 009°06'0 0.0
2018-Jul-29 09:29N 38°39' W 009°06'0 0.0
2018-Jul-29 08:56N 38°39' W 009°06'0 0.0
2018-Jul-29 08:26N 38°39' W 009°06'0 0.0
2018-Jul-29 07:50N 38°39' W 009°06'0 0.0
2018-Jul-29 07:26N 38°39' W 009°06'0 0.0
2018-Jul-29 06:53N 38°39' W 009°06'0 0.0
2018-Jul-29 06:23N 38°39' W 009°06'0 0.0
2018-Jul-29 05:29N 38°39' W 009°06'0 0.0
2018-Jul-29 04:08N 38°39' W 009°06'0 0.0
2018-Jul-29 03:53N 38°39' W 009°06'0 0.0
2018-Jul-29 03:17N 38°39' W 009°06'0 0.0
2018-Jul-29 02:56N 38°39' W 009°06'0 0.0
2018-Jul-29 02:26N 38°39' W 009°06'0 0.0
2018-Jul-29 01:56N 38°39' W 009°06'0 0.0
2018-Jul-29 01:26N 38°39' W 009°06'0 0.0
2018-Jul-28 21:12N 38°39' W 009°06'0 0.0
2018-Jul-28 20:39N 38°39' W 009°06'0 0.0
2018-Jul-28 20:27N 38°39' W 009°06'0 0.0
2018-Jul-28 19:30N 38°39' W 009°06'0 0.0
2018-Jul-28 18:00N 38°39' W 009°06'0 0.3
2018-Jul-28 17:29N 38°39' W 009°06'2 4.7
2018-Jul-28 16:59N 38°41' W 009°08'2 4.8
2018-Jul-28 16:28N 38°41' W 009°11'3 6.7
2018-Jul-28 16:00N 38°41' W 009°15'4 7.2
2018-Jul-28 15:30N 38°39' W 009°19'3 6.6
2018-Jul-28 14:59N 38°36' W 009°18'3 7.0
2018-Jul-28 14:30N 38°32' W 009°17'4 7.2
2018-Jul-28 14:00N 38°29' W 009°16'3 6.8
2018-Jul-28 13:30N 38°26' W 009°15'3 6.8
2018-Jul-28 13:00N 38°22' W 009°14'3 6.8
2018-Jul-28 12:29N 38°19' W 009°12'3 6.7
2018-Jul-28 12:00N 38°16' W 009°10'3 5.8
2018-Jul-28 11:30N 38°14' W 009°08'3 5.6
2018-Jul-28 11:00N 38°12' W 009°06'3 5.6
2018-Jul-28 10:30N 38°10' W 009°03'3 6.1
2018-Jul-28 10:00N 38°07' W 009°01'3 6.3
2018-Jul-28 09:30N 38°05' W 008°59'3 6.4
2018-Jul-28 09:00N 38°02' W 008°57'3 6.4
2018-Jul-28 08:30N 37°59' W 008°55'3 6.4
2018-Jul-28 08:00N 37°56' W 008°53'1 0.2
2018-Jul-27 23:53N 37°57' W 008°52'0 0.0
2018-Jul-27 23:29N 37°57' W 008°52'0 0.0
2018-Jul-27 22:59N 37°57' W 008°52'0 0.0
2018-Jul-27 22:29N 37°57' W 008°52'0 0.0
2018-Jul-27 21:59N 37°57' W 008°52'0 0.0
2018-Jul-27 21:29N 37°57' W 008°52'0 0.0
2018-Jul-27 20:59N 37°57' W 008°52'0 0.0
2018-Jul-27 20:29N 37°57' W 008°52'0 0.0
2018-Jul-27 19:59N 37°57' W 008°52'0 0.0
2018-Jul-27 19:29N 37°57' W 008°52'0 0.0
2018-Jul-27 18:59N 37°57' W 008°52'0 0.0
2018-Jul-27 18:29N 37°57' W 008°52'0 0.0
2018-Jul-27 17:59N 37°57' W 008°52'0 0.0
2018-Jul-27 17:29N 37°57' W 008°52'0 0.0
2018-Jul-27 17:00N 37°57' W 008°52'3 6.2
2018-Jul-27 16:30N 37°54' W 008°53'3 6.9
2018-Jul-27 16:00N 37°51' W 008°54'3 7.0
2018-Jul-27 15:30N 37°47' W 008°54'4 7.1
2018-Jul-27 14:59N 37°44' W 008°55'3 6.8
2018-Jul-27 14:30N 37°41' W 008°57'3 6.6
2018-Jul-27 13:59N 37°37' W 008°58'6 6.3
2018-Jul-27 13:01N 37°31' W 008°58'0 6.1
2018-Jul-27 13:00N 37°31' W 008°58'31 4.9
2018-Jul-27 06:45N 37°01' W 008°51'2 7.3
2018-Jul-27 06:27N 37°02' W 008°49'3 7.0
2018-Jul-27 06:00N 37°03' W 008°45'4 7.4
2018-Jul-27 05:30N 37°04' W 008°41'2 3.7
2018-Jul-27 04:55N 37°06' W 008°40'0 0.0
2018-Jul-27 04:25N 37°06' W 008°40'0 0.0
2018-Jul-27 03:43N 37°06' W 008°40'0 0.0
2018-Jul-27 03:19N 37°06' W 008°40'0 0.0
2018-Jul-27 02:58N 37°06' W 008°40'0 0.0
2018-Jul-27 02:28N 37°06' W 008°40'0 0.0
2018-Jul-27 01:58N 37°06' W 008°40'0 0.0
2018-Jul-27 01:25N 37°06' W 008°40'0 0.0
2018-Jul-27 00:52N 37°06' W 008°40'0 0.0
2018-Jul-27 00:28N 37°06' W 008°40'0 0.0
2018-Jul-26 23:58N 37°06' W 008°40'0 0.0
2018-Jul-26 23:25N 37°06' W 008°40'0 0.0
2018-Jul-26 22:58N 37°06' W 008°40'0 0.0
2018-Jul-26 22:28N 37°06' W 008°40'22 2.2
2018-Jul-26 12:18N 37°01' W 008°13'  
2018-Jul-21 14:45N 37°03' W 008°11'2 7.6
2018-Jul-21 14:30N 37°03' W 008°13'7 7.4
2018-Jul-21 13:30N 37°05' W 008°23'4 7.1
2018-Jul-21 12:57N 37°05' W 008°28'3 6.3
2018-Jul-21 12:30N 37°05' W 008°31'3 6.7
2018-Jul-21 12:00N 37°06' W 008°35'3 5.4
2018-Jul-21 11:30N 37°06' W 008°39'2 3.0
2018-Jul-21 10:58N 37°07' W 008°41'0 0.0
2018-Jul-21 09:28N 37°07' W 008°41'0 0.0
2018-Jul-21 08:40N 37°07' W 008°41'0 0.0
2018-Jul-21 08:28N 37°07' W 008°41'0 0.0
2018-Jul-21 08:00N 37°07' W 008°41'  
Track history (hours):
 
Tides and Currents Weather Stations Pressure Air Temp Water Temp Dewpoint Dewpoint Depression Visibility Wind Speed Wind Dir Waves Ship Positions

S/y Cinana

Last reported at 2018-Jul-29 15:50 UTC. Time now 2018-Aug-14 13:48 UTC.
Position N 38°39' W 009°06'.
Warning: this ship's position is 15 days out of date.

Length 13 m.

Type: Sailing vessel. MMSI: 263810470.

Date/timePositionNaut miles runAvg speedWind from/ knotsBaromVisibWave heightAir tempDewpointWater temp
2018-Jul-29 15:50N 38°39' W 009°06'0 0.0
2018-Jul-29 14:32N 38°39' W 009°06'0 0.0
2018-Jul-29 14:14N 38°39' W 009°06'0 0.0
2018-Jul-29 13:29N 38°39' W 009°06'0 0.0
2018-Jul-29 12:38N 38°39' W 009°06'0 0.0
2018-Jul-29 12:20N 38°39' W 009°06'0 0.0
2018-Jul-29 11:56N 38°39' W 009°06'0 0.0
2018-Jul-29 11:20N 38°39' W 009°06'0 0.0
2018-Jul-29 10:08N 38°39' W 009°06'0 0.0
2018-Jul-29 09:47N 38°39' W 009°06'0 0.0
2018-Jul-29 09:29N 38°39' W 009°06'0 0.0
2018-Jul-29 08:56N 38°39' W 009°06'0 0.0
2018-Jul-29 08:26N 38°39' W 009°06'0 0.0
2018-Jul-29 07:50N 38°39' W 009°06'0 0.0
2018-Jul-29 07:26N 38°39' W 009°06'0 0.0
2018-Jul-29 06:53N 38°39' W 009°06'0 0.0
2018-Jul-29 06:23N 38°39' W 009°06'0 0.0
2018-Jul-29 05:29N 38°39' W 009°06'0 0.0
2018-Jul-29 04:08N 38°39' W 009°06'0 0.0
2018-Jul-29 03:53N 38°39' W 009°06'0 0.0
2018-Jul-29 03:17N 38°39' W 009°06'0 0.0
2018-Jul-29 02:56N 38°39' W 009°06'0 0.0
2018-Jul-29 02:26N 38°39' W 009°06'0 0.0
2018-Jul-29 01:56N 38°39' W 009°06'0 0.0
2018-Jul-29 01:26N 38°39' W 009°06'0 0.0
2018-Jul-28 21:12N 38°39' W 009°06'0 0.0
2018-Jul-28 20:39N 38°39' W 009°06'0 0.0
2018-Jul-28 20:27N 38°39' W 009°06'0 0.0
2018-Jul-28 19:30N 38°39' W 009°06'0 0.0
2018-Jul-28 18:00N 38°39' W 009°06'0 0.3
2018-Jul-28 17:29N 38°39' W 009°06'2 4.7
2018-Jul-28 16:59N 38°41' W 009°08'2 4.8
2018-Jul-28 16:28N 38°41' W 009°11'3 6.7
2018-Jul-28 16:00N 38°41' W 009°15'4 7.2
2018-Jul-28 15:30N 38°39' W 009°19'3 6.6
2018-Jul-28 14:59N 38°36' W 009°18'3 7.0
2018-Jul-28 14:30N 38°32' W 009°17'4 7.2
2018-Jul-28 14:00N 38°29' W 009°16'3 6.8
2018-Jul-28 13:30N 38°26' W 009°15'3 6.8
2018-Jul-28 13:00N 38°22' W 009°14'3 6.8
2018-Jul-28 12:29N 38°19' W 009°12'3 6.7
2018-Jul-28 12:00N 38°16' W 009°10'3 5.8
2018-Jul-28 11:30N 38°14' W 009°08'3 5.6
2018-Jul-28 11:00N 38°12' W 009°06'3 5.6
2018-Jul-28 10:30N 38°10' W 009°03'3 6.1
2018-Jul-28 10:00N 38°07' W 009°01'3 6.3
2018-Jul-28 09:30N 38°05' W 008°59'3 6.4
2018-Jul-28 09:00N 38°02' W 008°57'3 6.4
2018-Jul-28 08:30N 37°59' W 008°55'3 6.4
2018-Jul-28 08:00N 37°56' W 008°53'1 0.2
2018-Jul-27 23:53N 37°57' W 008°52'0 0.0
2018-Jul-27 23:29N 37°57' W 008°52'0 0.0
2018-Jul-27 22:59N 37°57' W 008°52'0 0.0
2018-Jul-27 22:29N 37°57' W 008°52'0 0.0
2018-Jul-27 21:59N 37°57' W 008°52'0 0.0
2018-Jul-27 21:29N 37°57' W 008°52'0 0.0
2018-Jul-27 20:59N 37°57' W 008°52'0 0.0
2018-Jul-27 20:29N 37°57' W 008°52'0 0.0
2018-Jul-27 19:59N 37°57' W 008°52'0 0.0
2018-Jul-27 19:29N 37°57' W 008°52'0 0.0
2018-Jul-27 18:59N 37°57' W 008°52'0 0.0
2018-Jul-27 18:29N 37°57' W 008°52'0 0.0
2018-Jul-27 17:59N 37°57' W 008°52'0 0.0
2018-Jul-27 17:29N 37°57' W 008°52'0 0.0
2018-Jul-27 17:00N 37°57' W 008°52'3 6.2
2018-Jul-27 16:30N 37°54' W 008°53'3 6.9
2018-Jul-27 16:00N 37°51' W 008°54'3 7.0
2018-Jul-27 15:30N 37°47' W 008°54'4 7.1
2018-Jul-27 14:59N 37°44' W 008°55'3 6.8
2018-Jul-27 14:30N 37°41' W 008°57'3 6.6
2018-Jul-27 13:59N 37°37' W 008°58'6 6.3
2018-Jul-27 13:01N 37°31' W 008°58'0 6.1
2018-Jul-27 13:00N 37°31' W 008°58'31 4.9
2018-Jul-27 06:45N 37°01' W 008°51'2 7.3
2018-Jul-27 06:27N 37°02' W 008°49'3 7.0
2018-Jul-27 06:00N 37°03' W 008°45'4 7.4
2018-Jul-27 05:30N 37°04' W 008°41'2 3.7
2018-Jul-27 04:55N 37°06' W 008°40'0 0.0
2018-Jul-27 04:25N 37°06' W 008°40'0 0.0
2018-Jul-27 03:43N 37°06' W 008°40'0 0.0
2018-Jul-27 03:19N 37°06' W 008°40'0 0.0
2018-Jul-27 02:58N 37°06' W 008°40'0 0.0
2018-Jul-27 02:28N 37°06' W 008°40'0 0.0
2018-Jul-27 01:58N 37°06' W 008°40'0 0.0
2018-Jul-27 01:25N 37°06' W 008°40'0 0.0
2018-Jul-27 00:52N 37°06' W 008°40'0 0.0
2018-Jul-27 00:28N 37°06' W 008°40'0 0.0
2018-Jul-26 23:58N 37°06' W 008°40'0 0.0
2018-Jul-26 23:25N 37°06' W 008°40'0 0.0
2018-Jul-26 22:58N 37°06' W 008°40'0 0.0
2018-Jul-26 22:28N 37°06' W 008°40'22 2.2
2018-Jul-26 12:18N 37°01' W 008°13'  
2018-Jul-21 14:45N 37°03' W 008°11'2 7.6
2018-Jul-21 14:30N 37°03' W 008°13'7 7.4
2018-Jul-21 13:30N 37°05' W 008°23'4 7.1
2018-Jul-21 12:57N 37°05' W 008°28'3 6.3
2018-Jul-21 12:30N 37°05' W 008°31'3 6.7
2018-Jul-21 12:00N 37°06' W 008°35'3 5.4
2018-Jul-21 11:30N 37°06' W 008°39'2 3.0
2018-Jul-21 10:58N 37°07' W 008°41'0 0.0
2018-Jul-21 09:28N 37°07' W 008°41'0 0.0
2018-Jul-21 08:40N 37°07' W 008°41'0 0.0
2018-Jul-21 08:28N 37°07' W 008°41'0 0.0
2018-Jul-21 08:00N 37°07' W 008°41'  

Dump ship's entire track history